Time;durP1;ratioP1;P1;durP2;ratioP2;P2;SDS_P1;SDS_P2;PMS_P1;PMS_P2;Temp;Humidity;BMP_temperature;BMP_pressure;BME280_temperature;BME280_humidity;BME280_pressure;Samples;Min_cycle;Max_cycle;Signal;HPM_P1;HPM_P2
2022/03/13 00:02:16;;;;;;;19.90;8.10;;;;;;;;;;4977859;28;20053;-62
2022/03/13 00:04:44;;;;;;;16.52;7.28;;;;;;;;;;4967108;28;20027;-62
2022/03/13 00:07:16;;;;;;;14.93;8.13;;;;;;;;;;4969077;28;20559;-61
2022/03/13 00:09:43;;;;;;;19.10;8.07;;;;;;;;;;4968319;28;20045;-61
2022/03/13 00:12:19;;;;;;;16.15;7.50;;;;;;;;;;4981518;28;20033;-61
2022/03/13 00:14:46;;;;;;;17.35;8.52;;;;;;;;;;4962993;28;20045;-62
2022/03/13 00:17:15;;;;;;;17.23;7.72;;;;;;;;;;4966429;28;20022;-62
2022/03/13 00:19:44;;;;;;;14.35;7.85;;;;;;;;;;4962359;28;20027;-62
2022/03/13 00:22:10;;;;;;;24.23;8.32;;;;;;;;;;4971053;28;20034;-62
2022/03/13 00:24:36;;;;;;;16.38;8.07;;;;;;;;;;4969665;28;20097;-62
2022/03/13 00:27:02;;;;;;;16.35;7.95;;;;;;;;;;4971291;28;20026;-62
2022/03/13 00:29:30;;;;;;;14.15;7.63;;;;;;;;;;4969770;28;20034;-62
2022/03/13 00:31:56;;;;;;;18.38;8.82;;;;;;;;;;4966468;28;20031;-61
2022/03/13 00:34:25;;;;;;;16.38;7.65;;;;;;;;;;4968199;28;20073;-61
2022/03/13 00:36:51;;;;;;;17.17;7.53;;;;;;;;;;4962321;28;20041;-61
2022/03/13 00:39:16;;;;;;;20.15;8.15;;;;;;;;;;4967668;28;20116;-61
2022/03/13 00:41:42;;;;;;;15.25;7.85;;;;;;;;;;4963053;28;20034;-62
2022/03/13 00:44:07;;;;;;;23.13;8.93;;;;;;;;;;4968024;28;20125;-62
2022/03/13 00:46:35;;;;;;;16.85;8.25;;;;;;;;;;4964726;28;20034;-63
2022/03/13 00:49:03;;;;;;;15.23;7.43;;;;;;;;;;4978053;28;20026;-61
2022/03/13 00:51:32;;;;;;;17.42;8.15;;;;;;;;;;4967138;28;20088;-63
2022/03/13 00:53:57;;;;;;;18.50;8.88;;;;;;;;;;4969499;28;20039;-61
2022/03/13 00:56:28;;;;;;;15.88;7.85;;;;;;;;;;4967711;28;20532;-63
2022/03/13 00:58:57;;;;;;;20.35;8.88;;;;;;;;;;4966141;28;20100;-61
2022/03/13 01:01:25;;;;;;;19.08;8.68;;;;;;;;;;4982806;28;20030;-63
2022/03/13 01:03:53;;;;;;;20.60;8.10;;;;;;;;;;4950828;28;20034;-62
2022/03/13 01:06:21;;;;;;;14.20;8.23;;;;;;;;;;4968612;28;20132;-61
2022/03/13 01:08:47;;;;;;;16.67;8.77;;;;;;;;;;4981170;28;20391;-61
2022/03/13 01:11:14;;;;;;;17.63;8.50;;;;;;;;;;4952147;28;20431;-61
2022/03/13 01:13:40;;;;;;;16.15;7.57;;;;;;;;;;4963675;28;20030;-62
2022/03/13 01:16:11;;;;;;;14.00;8.10;;;;;;;;;;4966636;28;20033;-64
2022/03/13 01:18:46;;;;;;;15.50;8.00;;;;;;;;;;4979492;28;20030;-62
2022/03/13 01:21:12;;;;;;;15.82;7.85;;;;;;;;;;4966490;28;20420;-62
2022/03/13 01:24:02;;;;;;;19.35;8.02;;;;;;;;;;4968778;28;20389;-61
2022/03/13 01:26:29;;;;;;;16.98;8.35;;;;;;;;;;4966608;28;20535;-63
2022/03/13 01:28:58;;;;;;;20.67;7.78;;;;;;;;;;4967471;28;20023;-62
2022/03/13 01:31:25;;;;;;;14.93;7.40;;;;;;;;;;4968905;28;20065;-62
2022/03/13 01:33:51;;;;;;;14.55;7.75;;;;;;;;;;4969511;28;20113;-62
2022/03/13 01:36:20;;;;;;;15.63;8.10;;;;;;;;;;4967124;28;20038;-64
2022/03/13 01:38:45;;;;;;;19.20;8.05;;;;;;;;;;4961361;28;20035;-62
2022/03/13 01:41:11;;;;;;;17.10;7.88;;;;;;;;;;4965935;28;20176;-63
2022/03/13 01:43:37;;;;;;;18.73;8.88;;;;;;;;;;4967837;28;20026;-65
2022/03/13 01:46:05;;;;;;;18.73;8.90;;;;;;;;;;4967104;28;20030;-64
2022/03/13 01:48:50;;;;;;;16.25;8.13;;;;;;;;;;4968110;28;20389;-62
2022/03/13 01:51:15;;;;;;;17.63;8.43;;;;;;;;;;4965253;28;20396;-62
2022/03/13 01:53:43;;;;;;;21.98;8.45;;;;;;;;;;4945245;28;20060;-62
2022/03/13 01:56:09;;;;;;;20.50;8.43;;;;;;;;;;4965274;28;20064;-62
2022/03/13 01:58:35;;;;;;;18.85;8.50;;;;;;;;;;4965951;28;20057;-63
2022/03/13 02:01:01;;;;;;;19.67;8.88;;;;;;;;;;4967715;28;20030;-63
2022/03/13 02:03:31;;;;;;;20.27;8.95;;;;;;;;;;4968029;28;20027;-62
2022/03/13 02:05:57;;;;;;;20.80;9.70;;;;;;;;;;4957914;28;20239;-61
2022/03/13 02:08:27;;;;;;;16.35;8.60;;;;;;;;;;4968387;28;20026;-63
2022/03/13 02:10:57;;;;;;;18.55;8.27;;;;;;;;;;4967960;28;20607;-63
2022/03/13 02:13:23;;;;;;;16.23;8.30;;;;;;;;;;4965142;28;20030;-62
2022/03/13 02:15:48;;;;;;;20.95;7.95;;;;;;;;;;4979383;28;20030;-63
2022/03/13 02:18:14;;;;;;;14.23;7.93;;;;;;;;;;4958483;28;20362;-61
2022/03/13 02:20:44;;;;;;;17.42;7.90;;;;;;;;;;4958667;28;20121;-62
2022/03/13 02:23:18;;;;;;;21.13;8.48;;;;;;;;;;4961425;28;20121;-63
2022/03/13 02:25:47;;;;;;;16.58;7.95;;;;;;;;;;4967718;28;20422;-61
2022/03/13 02:28:18;;;;;;;15.18;8.48;;;;;;;;;;4976563;28;20042;-61
2022/03/13 02:30:43;;;;;;;15.35;8.63;;;;;;;;;;4967896;28;20149;-61
2022/03/13 02:33:09;;;;;;;15.13;8.27;;;;;;;;;;4948437;28;20131;-62
2022/03/13 02:35:37;;;;;;;18.60;8.55;;;;;;;;;;4966399;28;20038;-64
2022/03/13 02:38:05;;;;;;;22.40;9.02;;;;;;;;;;4969290;28;20077;-63
2022/03/13 02:40:31;;;;;;;14.02;7.97;;;;;;;;;;4966024;28;20034;-62
2022/03/13 02:42:56;;;;;;;15.85;8.43;;;;;;;;;;4965161;28;20437;-61
2022/03/13 02:45:27;;;;;;;21.40;9.02;;;;;;;;;;4966027;28;20096;-62
2022/03/13 02:47:55;;;;;;;19.98;9.05;;;;;;;;;;4965525;28;20232;-62
2022/03/13 02:50:22;;;;;;;22.60;8.68;;;;;;;;;;4975279;28;20089;-62
2022/03/13 02:52:48;;;;;;;18.08;9.13;;;;;;;;;;4977394;28;20050;-62
2022/03/13 02:55:13;;;;;;;18.92;9.23;;;;;;;;;;4966502;28;20045;-62
2022/03/13 02:57:39;;;;;;;18.85;8.70;;;;;;;;;;4958988;28;20070;-62
2022/03/13 03:00:10;;;;;;;18.75;9.43;;;;;;;;;;4965273;28;20134;-62
2022/03/13 03:02:36;;;;;;;19.10;10.05;;;;;;;;;;4964241;28;20385;-62
2022/03/13 03:05:04;;;;;;;19.33;8.43;;;;;;;;;;4961949;28;20892;-62
2022/03/13 03:07:30;;;;;;;18.23;9.30;;;;;;;;;;4965072;28;20043;-61
2022/03/13 03:10:00;;;;;;;21.42;9.25;;;;;;;;;;4967635;28;20030;-61
2022/03/13 03:12:30;;;;;;;14.80;8.20;;;;;;;;;;4964086;28;20048;-61
2022/03/13 03:14:57;;;;;;;16.65;8.25;;;;;;;;;;4965324;28;20492;-62
2022/03/13 03:17:22;;;;;;;20.85;9.32;;;;;;;;;;4977395;28;20030;-63
2022/03/13 03:19:50;;;;;;;18.33;9.40;;;;;;;;;;4964494;28;20100;-63
2022/03/13 03:22:16;;;;;;;16.60;8.23;;;;;;;;;;4971791;28;20037;-62
2022/03/13 03:24:42;;;;;;;14.85;8.60;;;;;;;;;;4965005;28;20034;-62
2022/03/13 03:27:07;;;;;;;19.52;9.00;;;;;;;;;;4959262;28;20042;-62
2022/03/13 03:33:08;;;;;;;15.98;8.45;;;;;;;;;;4968035;28;20034;-62
2022/03/13 03:38:49;;;;;;;17.35;8.75;;;;;;;;;;4965707;28;20062;-62
2022/03/13 03:41:15;;;;;;;18.23;9.30;;;;;;;;;;4948031;28;20034;-62
2022/03/13 03:43:42;;;;;;;18.05;9.13;;;;;;;;;;4945256;28;20148;-62
2022/03/13 03:46:10;;;;;;;21.25;10.18;;;;;;;;;;4963965;28;20049;-62
2022/03/13 03:48:36;;;;;;;21.58;9.73;;;;;;;;;;4959619;28;20033;-62
2022/03/13 03:51:02;;;;;;;15.98;9.05;;;;;;;;;;4945118;28;20073;-62
2022/03/13 03:53:27;;;;;;;16.77;8.60;;;;;;;;;;4966422;28;20038;-61
2022/03/13 03:55:54;;;;;;;17.85;9.18;;;;;;;;;;4968291;28;20457;-61
2022/03/13 03:58:22;;;;;;;22.55;9.77;;;;;;;;;;4960538;28;20180;-63
2022/03/13 04:00:48;;;;;;;19.20;9.05;;;;;;;;;;4970203;28;20105;-61
2022/03/13 04:03:14;;;;;;;17.85;9.10;;;;;;;;;;4969056;28;20038;-63
2022/03/13 04:05:39;;;;;;;34.20;9.43;;;;;;;;;;4969757;28;21818;-61
2022/03/13 04:08:05;;;;;;;24.08;10.85;;;;;;;;;;4944812;28;20453;-63
2022/03/13 04:10:33;;;;;;;22.17;10.57;;;;;;;;;;4982999;28;20080;-62
2022/03/13 04:12:58;;;;;;;17.85;9.13;;;;;;;;;;4961175;28;21463;-62
2022/03/13 04:15:29;;;;;;;17.23;9.10;;;;;;;;;;4977104;28;20030;-62
2022/03/13 04:17:56;;;;;;;19.33;9.02;;;;;;;;;;4979702;28;20501;-63
2022/03/13 04:20:21;;;;;;;18.55;9.23;;;;;;;;;;4977507;28;20038;-62
2022/03/13 04:22:50;;;;;;;18.90;8.98;;;;;;;;;;4977102;28;20066;-62
2022/03/13 04:25:23;;;;;;;18.80;9.85;;;;;;;;;;4963274;28;20579;-63
2022/03/13 04:27:49;;;;;;;24.10;9.73;;;;;;;;;;4966728;28;20038;-62
2022/03/13 04:30:17;;;;;;;21.30;10.02;;;;;;;;;;4981790;28;20039;-62
2022/03/13 04:32:47;;;;;;;20.40;9.07;;;;;;;;;;4968304;28;20046;-62
2022/03/13 04:35:15;;;;;;;20.67;9.45;;;;;;;;;;4961872;28;20038;-62
2022/03/13 04:37:43;;;;;;;20.23;9.52;;;;;;;;;;4946275;28;21440;-61
2022/03/13 04:40:11;;;;;;;19.23;9.13;;;;;;;;;;4977260;28;20122;-62
2022/03/13 04:42:39;;;;;;;20.88;9.93;;;;;;;;;;4978797;28;20054;-62
2022/03/13 04:45:06;;;;;;;15.68;8.48;;;;;;;;;;4966675;28;20101;-62
2022/03/13 04:47:32;;;;;;;23.40;10.23;;;;;;;;;;4968523;28;20594;-64
2022/03/13 04:49:59;;;;;;;20.30;10.27;;;;;;;;;;4962496;28;20039;-61
2022/03/13 04:52:28;;;;;;;19.63;9.02;;;;;;;;;;4980923;28;20138;-61
2022/03/13 04:54:53;;;;;;;20.40;8.55;;;;;;;;;;4946135;28;20045;-62
2022/03/13 04:57:19;;;;;;;18.00;8.25;;;;;;;;;;4958454;28;20109;-63
2022/03/13 04:59:48;;;;;;;19.65;9.50;;;;;;;;;;4967192;28;20037;-63
2022/03/13 05:02:13;;;;;;;15.27;8.23;;;;;;;;;;4952683;28;20042;-63
2022/03/13 05:04:43;;;;;;;18.65;9.60;;;;;;;;;;4962941;28;21109;-62
2022/03/13 05:07:13;;;;;;;19.10;8.52;;;;;;;;;;4962910;28;20117;-64
2022/03/13 05:09:39;;;;;;;16.50;8.95;;;;;;;;;;4967072;28;20140;-61
2022/03/13 05:12:10;;;;;;;22.63;8.93;;;;;;;;;;4968859;28;20460;-62
2022/03/13 05:14:38;;;;;;;23.63;9.07;;;;;;;;;;4967884;28;20046;-62
2022/03/13 05:17:06;;;;;;;17.75;8.52;;;;;;;;;;4968184;28;20053;-63
2022/03/13 05:19:32;;;;;;;14.25;8.38;;;;;;;;;;4967018;28;20125;-62
2022/03/13 05:21:57;;;;;;;18.40;9.88;;;;;;;;;;4963676;28;20043;-62
2022/03/13 05:24:27;;;;;;;24.00;9.02;;;;;;;;;;4981819;28;20173;-62
2022/03/13 05:26:57;;;;;;;18.00;8.75;;;;;;;;;;4982285;28;20046;-64
2022/03/13 05:29:23;;;;;;;19.85;9.95;;;;;;;;;;4977551;28;20034;-61
2022/03/13 05:31:51;;;;;;;20.45;8.85;;;;;;;;;;4968392;28;20410;-61
2022/03/13 05:34:18;;;;;;;19.05;8.50;;;;;;;;;;4963320;28;20034;-62
2022/03/13 05:36:46;;;;;;;17.95;8.52;;;;;;;;;;4962305;28;20092;-62
2022/03/13 05:39:11;;;;;;;19.15;8.95;;;;;;;;;;4945709;28;20030;-62
2022/03/13 05:41:42;;;;;;;20.25;8.38;;;;;;;;;;4960870;28;20030;-65
2022/03/13 05:44:12;;;;;;;19.00;8.38;;;;;;;;;;4961926;28;20092;-64
2022/03/13 05:46:38;;;;;;;19.55;9.07;;;;;;;;;;4966894;28;20030;-63
2022/03/13 05:49:04;;;;;;;15.55;8.18;;;;;;;;;;4969666;28;21897;-61
2022/03/13 05:51:37;;;;;;;21.10;8.23;;;;;;;;;;4978111;28;20034;-62
2022/03/13 05:54:03;;;;;;;20.10;8.93;;;;;;;;;;4980306;28;20034;-63
2022/03/13 05:59:42;;;;;;;14.10;8.35;;;;;;;;;;4964309;28;20080;-62
2022/03/13 06:02:07;;;;;;;18.10;8.10;;;;;;;;;;4944141;28;20168;-62
2022/03/13 06:04:37;;;;;;;14.30;7.45;;;;;;;;;;4965643;28;20984;-62
2022/03/13 06:07:07;;;;;;;16.20;8.18;;;;;;;;;;4966191;28;20054;-62
2022/03/13 06:09:34;;;;;;;14.15;7.30;;;;;;;;;;4980086;28;20042;-63
2022/03/13 06:12:02;;;;;;;17.27;8.00;;;;;;;;;;4962370;28;20054;-62
2022/03/13 06:14:28;;;;;;;15.85;8.15;;;;;;;;;;4950759;28;20038;-63
2022/03/13 06:16:53;;;;;;;18.58;7.53;;;;;;;;;;4961660;28;23083;-61
2022/03/13 06:19:22;;;;;;;23.30;7.88;;;;;;;;;;4962965;28;20665;-62
2022/03/13 06:21:50;;;;;;;18.13;8.25;;;;;;;;;;4968191;28;21012;-61
2022/03/13 06:24:18;;;;;;;14.38;7.45;;;;;;;;;;4963590;28;20053;-65
2022/03/13 06:26:44;;;;;;;16.25;7.82;;;;;;;;;;4966325;28;20029;-64
2022/03/13 06:29:13;;;;;;;17.05;8.77;;;;;;;;;;4965539;28;20026;-67
2022/03/13 06:31:44;;;;;;;20.13;8.38;;;;;;;;;;4960793;28;20038;-62
2022/03/13 06:34:11;;;;;;;17.10;7.50;;;;;;;;;;4966420;28;20041;-62
2022/03/13 06:36:37;;;;;;;13.70;6.60;;;;;;;;;;4963650;28;20030;-62
2022/03/13 06:39:05;;;;;;;16.00;7.72;;;;;;;;;;4979050;28;22178;-63
2022/03/13 06:41:33;;;;;;;18.73;8.77;;;;;;;;;;4976176;28;20073;-62
2022/03/13 06:44:03;;;;;;;16.40;7.88;;;;;;;;;;4973736;28;20108;-62
2022/03/13 06:46:32;;;;;;;15.05;7.63;;;;;;;;;;4962430;28;20038;-62
2022/03/13 06:49:00;;;;;;;15.15;7.85;;;;;;;;;;4965116;28;20061;-65
2022/03/13 06:51:26;;;;;;;16.08;8.38;;;;;;;;;;4967112;28;20118;-64
2022/03/13 06:53:51;;;;;;;15.15;7.72;;;;;;;;;;4948607;28;20018;-63
2022/03/13 06:56:19;;;;;;;18.60;8.55;;;;;;;;;;4957249;28;20104;-63
2022/03/13 06:58:48;;;;;;;14.20;8.20;;;;;;;;;;4964188;28;20050;-63
2022/03/13 07:01:13;;;;;;;14.85;7.72;;;;;;;;;;4972842;28;20120;-63
2022/03/13 07:03:40;;;;;;;15.18;7.05;;;;;;;;;;4964606;28;20035;-63
2022/03/13 07:06:07;;;;;;;13.40;7.22;;;;;;;;;;4966889;28;20164;-63
2022/03/13 07:08:33;;;;;;;16.30;7.53;;;;;;;;;;4979560;28;20058;-62
2022/03/13 07:10:59;;;;;;;13.57;7.25;;;;;;;;;;4966593;28;20077;-62
2022/03/13 07:13:27;;;;;;;13.20;7.20;;;;;;;;;;4963457;28;20038;-64
2022/03/13 07:15:53;;;;;;;14.50;8.02;;;;;;;;;;4962688;28;20164;-63
2022/03/13 07:18:19;;;;;;;15.50;7.45;;;;;;;;;;4962294;28;20774;-66
2022/03/13 07:20:45;;;;;;;15.65;8.05;;;;;;;;;;4965030;28;20045;-64
2022/03/13 07:23:11;;;;;;;24.38;7.88;;;;;;;;;;4947818;28;20041;-62
2022/03/13 07:25:36;;;;;;;16.52;8.20;;;;;;;;;;4958211;28;20037;-62
2022/03/13 07:28:05;;;;;;;13.95;7.30;;;;;;;;;;4951302;28;20635;-63
2022/03/13 07:30:33;;;;;;;15.00;7.18;;;;;;;;;;4964616;28;20027;-64
2022/03/13 07:33:00;;;;;;;14.50;7.65;;;;;;;;;;4966603;28;20065;-63
2022/03/13 07:35:31;;;;;;;15.18;7.53;;;;;;;;;;4979637;28;20084;-63
2022/03/13 07:38:01;;;;;;;18.50;8.35;;;;;;;;;;4979507;28;20124;-62
2022/03/13 07:40:27;;;;;;;15.00;7.38;;;;;;;;;;4964081;28;20042;-63
2022/03/13 07:42:53;;;;;;;14.90;7.13;;;;;;;;;;4951720;28;20031;-65
2022/03/13 07:45:23;;;;;;;14.52;7.20;;;;;;;;;;4981209;28;20042;-63
2022/03/13 07:47:54;;;;;;;13.65;7.38;;;;;;;;;;4969980;28;20262;-63
2022/03/13 07:50:23;;;;;;;21.05;7.15;;;;;;;;;;4967301;28;20062;-62
2022/03/13 07:52:48;;;;;;;17.98;7.93;;;;;;;;;;4946724;28;20045;-62
2022/03/13 07:55:17;;;;;;;15.15;7.80;;;;;;;;;;4976752;28;20042;-63
2022/03/13 07:57:43;;;;;;;17.27;7.80;;;;;;;;;;4966471;28;20018;-66
2022/03/13 08:00:11;;;;;;;13.40;6.93;;;;;;;;;;4967284;28;21894;-64
2022/03/13 08:02:36;;;;;;;13.90;7.65;;;;;;;;;;4978056;28;20026;-63
2022/03/13 08:05:02;;;;;;;16.50;7.75;;;;;;;;;;4967455;28;20184;-63
2022/03/13 08:07:30;;;;;;;14.80;6.45;;;;;;;;;;4968306;28;20029;-63
2022/03/13 08:10:01;;;;;;;14.02;6.95;;;;;;;;;;4961251;28;20076;-63
2022/03/13 08:12:27;;;;;;;15.85;7.78;;;;;;;;;;4977733;28;20603;-61
2022/03/13 08:14:52;;;;;;;11.85;6.55;;;;;;;;;;4963391;28;20035;-62
2022/03/13 08:17:18;;;;;;;16.02;7.22;;;;;;;;;;4944419;28;20073;-62
2022/03/13 08:19:44;;;;;;;14.23;7.32;;;;;;;;;;4968916;28;20030;-63
2022/03/13 08:22:12;;;;;;;13.93;7.63;;;;;;;;;;4967040;28;20077;-63
2022/03/13 08:24:40;;;;;;;12.48;7.25;;;;;;;;;;4965670;28;20030;-64
2022/03/13 08:27:06;;;;;;;14.57;7.47;;;;;;;;;;4965391;28;20037;-63
2022/03/13 08:29:34;;;;;;;14.88;6.88;;;;;;;;;;4950953;28;20030;-63
2022/03/13 08:32:09;;;;;;;15.32;7.65;;;;;;;;;;4978177;28;20056;-62
2022/03/13 08:34:34;;;;;;;;;;;;;;;;;;4970099;28;20049;-62
2022/03/13 08:37:00;;;;;;;14.43;6.78;;;;;;;;;;4968338;28;19914;-62
2022/03/13 08:39:28;;;;;;;19.88;7.10;;;;;;;;;;4977635;28;20482;-63
2022/03/13 08:41:56;;;;;;;12.57;6.43;;;;;;;;;;4958717;28;20038;-64
2022/03/13 08:44:26;;;;;;;12.65;6.65;;;;;;;;;;4960742;28;20026;-63
2022/03/13 08:46:54;;;;;;;12.20;6.65;;;;;;;;;;4967562;28;20379;-63
2022/03/13 08:49:20;;;;;;;15.35;6.93;;;;;;;;;;4979125;28;20037;-62
2022/03/13 08:51:46;;;;;;;12.65;7.50;;;;;;;;;;4967469;28;20094;-63
2022/03/13 08:54:16;;;;;;;15.70;7.10;;;;;;;;;;4956501;28;20081;-63
2022/03/13 08:56:42;;;;;;;11.68;6.88;;;;;;;;;;4955796;28;21049;-63
2022/03/13 08:59:07;;;;;;;12.02;6.82;;;;;;;;;;4946010;28;20544;-64
2022/03/13 09:01:33;;;;;;;12.30;7.30;;;;;;;;;;4974227;28;20886;-63
2022/03/13 09:03:59;;;;;;;12.18;6.50;;;;;;;;;;4964418;28;20038;-64
2022/03/13 09:06:24;;;;;;;14.13;6.70;;;;;;;;;;4973775;28;20176;-68
2022/03/13 09:08:50;;;;;;;10.57;6.68;;;;;;;;;;4973722;28;20125;-65
2022/03/13 09:11:18;;;;;;;15.20;6.93;;;;;;;;;;4964706;28;20036;-67
2022/03/13 09:13:46;;;;;;;14.38;7.22;;;;;;;;;;4945092;28;20037;-64
2022/03/13 09:16:12;;;;;;;10.73;6.05;;;;;;;;;;4959621;28;20050;-64
2022/03/13 09:18:38;;;;;;;11.70;7.13;;;;;;;;;;4959719;28;21606;-64
2022/03/13 09:21:04;;;;;;;9.70;6.25;;;;;;;;;;4963905;28;20038;-63
2022/03/13 09:23:31;;;;;;;11.55;6.38;;;;;;;;;;4962846;28;20037;-64
2022/03/13 09:25:56;;;;;;;11.45;6.32;;;;;;;;;;4945783;28;22026;-66
2022/03/13 09:28:22;;;;;;;11.80;6.47;;;;;;;;;;4959614;28;20099;-64
2022/03/13 09:30:48;;;;;;;13.63;7.20;;;;;;;;;;4975622;28;20034;-64
2022/03/13 09:33:17;;;;;;;10.27;6.55;;;;;;;;;;4949291;28;20033;-63
2022/03/13 09:35:43;;;;;;;10.55;6.00;;;;;;;;;;4965887;28;20161;-64
2022/03/13 09:38:08;;;;;;;13.52;6.65;;;;;;;;;;4965146;28;20061;-64
2022/03/13 09:40:34;;;;;;;15.48;7.95;;;;;;;;;;4963580;28;20601;-64
2022/03/13 09:43:01;;;;;;;10.63;6.60;;;;;;;;;;4963976;28;20394;-66
2022/03/13 09:45:26;;;;;;;11.07;6.82;;;;;;;;;;4963186;28;20111;-64
2022/03/13 09:47:52;;;;;;;12.25;6.00;;;;;;;;;;4964554;28;20030;-64
2022/03/13 09:50:18;;;;;;;11.60;5.93;;;;;;;;;;4966119;28;20026;-65
2022/03/13 09:52:44;;;;;;;12.00;6.32;;;;;;;;;;4963272;28;20475;-64
2022/03/13 09:55:12;;;;;;;11.20;6.03;;;;;;;;;;4959245;28;20035;-66
2022/03/13 09:57:40;;;;;;;16.33;6.80;;;;;;;;;;4965379;28;20034;-65
2022/03/13 10:00:07;;;;;;;11.00;6.15;;;;;;;;;;4961742;28;20125;-64
2022/03/13 10:02:34;;;;;;;10.25;6.45;;;;;;;;;;4961591;28;20058;-64
2022/03/13 10:05:03;;;;;;;11.27;5.85;;;;;;;;;;4965297;28;20566;-68
2022/03/13 10:07:29;;;;;;;10.25;6.10;;;;;;;;;;4963043;28;20032;-65
2022/03/13 10:09:56;;;;;;;11.52;6.30;;;;;;;;;;4975689;28;20030;-64
2022/03/13 10:12:21;;;;;;;10.38;5.68;;;;;;;;;;4957350;28;20027;-64
2022/03/13 10:14:59;;;;;;;13.27;6.55;;;;;;;;;;4961418;28;20458;-65
2022/03/13 10:17:26;;;;;;;10.20;6.15;;;;;;;;;;4959347;28;20886;-64
2022/03/13 10:19:51;;;;;;;10.05;6.75;;;;;;;;;;4965289;28;20026;-68
2022/03/13 10:22:17;;;;;;;11.77;6.53;;;;;;;;;;4963006;28;20030;-64
2022/03/13 10:24:44;;;;;;;11.43;6.65;;;;;;;;;;4946187;28;20121;-65
2022/03/13 10:27:16;;;;;;;9.77;6.65;;;;;;;;;;4963750;28;20036;-63
2022/03/13 10:29:42;;;;;;;9.85;6.18;;;;;;;;;;4971057;28;20027;-63
2022/03/13 10:32:11;;;;;;;9.10;5.40;;;;;;;;;;4961096;28;20025;-66
2022/03/13 10:34:40;;;;;;;12.55;6.85;;;;;;;;;;4963661;28;20121;-65
2022/03/13 10:37:06;;;;;;;10.77;6.57;;;;;;;;;;4964299;28;20098;-63
2022/03/13 10:39:33;;;;;;;9.82;6.53;;;;;;;;;;4972736;28;20040;-63
2022/03/13 10:42:01;;;;;;;12.85;6.28;;;;;;;;;;4964626;28;20030;-63
2022/03/13 10:44:30;;;;;;;11.32;6.47;;;;;;;;;;4962165;28;20140;-64
2022/03/13 10:47:02;;;;;;;10.20;6.43;;;;;;;;;;4972064;28;20124;-65
2022/03/13 10:49:40;;;;;;;9.70;6.90;;;;;;;;;;4958109;28;20034;-63
2022/03/13 10:52:41;;;;;;;13.48;6.32;;;;;;;;;;4961454;28;20034;-63
2022/03/13 10:55:21;;;;;;;11.07;5.80;;;;;;;;;;4941426;28;20058;-62
2022/03/13 10:57:57;;;;;;;11.10;6.15;;;;;;;;;;4977659;28;20125;-63
2022/03/13 11:00:27;;;;;;;11.25;6.80;;;;;;;;;;4962195;28;20778;-62
2022/03/13 11:03:07;;;;;;;12.63;6.70;;;;;;;;;;4958007;28;20042;-63
2022/03/13 11:05:34;;;;;;;14.88;6.75;;;;;;;;;;4963964;28;20145;-64
2022/03/13 11:08:00;;;;;;;12.45;6.45;;;;;;;;;;4959450;28;20977;-63
2022/03/13 11:10:25;;;;;;;13.60;6.38;;;;;;;;;;4973509;28;20038;-63
2022/03/13 11:12:54;;;;;;;9.15;5.80;;;;;;;;;;4962937;28;20608;-63
2022/03/13 11:15:20;;;;;;;10.43;5.80;;;;;;;;;;4963319;28;20049;-63
2022/03/13 11:17:48;;;;;;;13.23;6.85;;;;;;;;;;4964349;28;20038;-62
2022/03/13 11:20:15;;;;;;;9.43;5.72;;;;;;;;;;4957789;28;20121;-65
2022/03/13 11:22:41;;;;;;;12.00;6.38;;;;;;;;;;4977944;28;20175;-66
2022/03/13 11:25:10;;;;;;;9.07;6.35;;;;;;;;;;4973268;28;20046;-66
2022/03/13 11:27:37;;;;;;;11.07;5.35;;;;;;;;;;4964196;28;20093;-63
2022/03/13 11:30:05;;;;;;;9.38;6.15;;;;;;;;;;4972149;28;20054;-64
2022/03/13 11:32:34;;;;;;;12.55;6.30;;;;;;;;;;4962192;28;20105;-63
2022/03/13 11:35:18;;;;;;;9.90;6.65;;;;;;;;;;4965348;28;20027;-63
2022/03/13 11:37:47;;;;;;;9.52;5.72;;;;;;;;;;4963759;28;20038;-64
2022/03/13 11:40:14;;;;;;;12.43;6.03;;;;;;;;;;4964736;28;20533;-63
2022/03/13 11:42:49;;;;;;;12.18;5.70;;;;;;;;;;4976835;28;21867;-65
2022/03/13 11:45:35;;;;;;;9.75;6.53;;;;;;;;;;4964299;28;20149;-63
2022/03/13 11:48:21;;;;;;;9.43;5.55;;;;;;;;;;4963966;28;20545;-63
2022/03/13 11:50:51;;;;;;;10.27;6.55;;;;;;;;;;4960551;28;20161;-65
2022/03/13 11:53:19;;;;;;;8.43;5.90;;;;;;;;;;4961368;28;22010;-65
2022/03/13 11:55:57;;;;;;;11.35;5.93;;;;;;;;;;4977433;28;20045;-65
2022/03/13 11:58:42;;;;;;;9.20;6.10;;;;;;;;;;4959261;28;20050;-65
2022/03/13 12:01:08;;;;;;;9.52;6.13;;;;;;;;;;4955782;28;20042;-63
2022/03/13 12:03:33;;;;;;;9.68;5.60;;;;;;;;;;4963784;28;20007;-63
2022/03/13 12:05:59;;;;;;;8.55;6.32;;;;;;;;;;4973449;28;20401;-65
2022/03/13 12:08:45;;;;;;;12.05;6.35;;;;;;;;;;4973662;28;20054;-64
2022/03/13 12:11:29;;;;;;;9.80;6.22;;;;;;;;;;4962774;28;20675;-63
2022/03/13 12:13:56;;;;;;;8.57;5.68;;;;;;;;;;4961612;28;20094;-63
2022/03/13 12:16:21;;;;;;;12.23;6.05;;;;;;;;;;4978694;28;20733;-63
2022/03/13 12:18:57;;;;;;;8.77;6.35;;;;;;;;;;4966329;28;20030;-62
2022/03/13 12:21:22;;;;;;;8.38;6.05;;;;;;;;;;4959299;28;20042;-63
2022/03/13 12:23:48;;;;;;;12.07;6.10;;;;;;;;;;4976788;28;20553;-64
2022/03/13 12:26:17;;;;;;;8.88;5.95;;;;;;;;;;4964322;28;20821;-65
2022/03/13 12:28:43;;;;;;;8.80;6.07;;;;;;;;;;4979799;28;20076;-62
2022/03/13 12:31:09;;;;;;;8.93;5.50;;;;;;;;;;4965422;28;20076;-62
2022/03/13 12:33:39;;;;;;;7.60;5.30;;;;;;;;;;4962775;28;20035;-62
2022/03/13 12:36:05;;;;;;;9.82;6.55;;;;;;;;;;4966106;28;20140;-62
2022/03/13 12:38:31;;;;;;;9.77;5.82;;;;;;;;;;4976189;28;20038;-62
2022/03/13 12:40:58;;;;;;;12.27;6.03;;;;;;;;;;4965742;28;20042;-62
2022/03/13 12:43:45;;;;;;;9.38;6.25;;;;;;;;;;4965764;28;20038;-63
2022/03/13 12:46:12;;;;;;;8.75;5.80;;;;;;;;;;4967786;28;20054;-64
2022/03/13 12:48:38;;;;;;;8.82;5.88;;;;;;;;;;4968783;28;20026;-64
2022/03/13 12:51:04;;;;;;;9.10;6.22;;;;;;;;;;4967195;28;21253;-64
2022/03/13 12:53:31;;;;;;;10.43;6.15;;;;;;;;;;4961507;28;20217;-64
2022/03/13 12:55:57;;;;;;;11.60;6.30;;;;;;;;;;4966725;28;20026;-63
2022/03/13 12:58:42;;;;;;;15.07;6.00;;;;;;;;;;4965987;28;20054;-65
2022/03/13 13:01:21;;;;;;;6.80;5.40;;;;;;;;;;4948477;28;20632;-68
2022/03/13 13:03:50;;;;;;;10.82;6.30;;;;;;;;;;4950036;28;20037;-63
2022/03/13 13:06:29;;;;;;;8.95;6.20;;;;;;;;;;4964970;28;20317;-66
2022/03/13 13:08:55;;;;;;;9.32;6.32;;;;;;;;;;4948838;28;20041;-65
2022/03/13 13:11:28;;;;;;;8.77;6.10;;;;;;;;;;4966892;28;20447;-64
2022/03/13 13:13:57;;;;;;;12.13;6.33;;;;;;;;;;4966662;28;20158;-63
2022/03/13 13:16:23;;;;;;;10.27;5.65;;;;;;;;;;4965477;28;20291;-63
2022/03/13 13:18:49;;;;;;;10.55;6.60;;;;;;;;;;4963845;28;20129;-65
2022/03/13 13:21:14;;;;;;;10.60;5.95;;;;;;;;;;4962210;28;20423;-64
2022/03/13 13:23:42;;;;;;;9.60;6.05;;;;;;;;;;4965524;28;20045;-62
2022/03/13 13:26:08;;;;;;;8.10;6.18;;;;;;;;;;4965927;28;20034;-66
2022/03/13 13:28:34;;;;;;;10.30;6.25;;;;;;;;;;4963562;28;20026;-65
2022/03/13 13:31:00;;;;;;;7.72;5.72;;;;;;;;;;4965827;28;20035;-64
2022/03/13 13:33:32;;;;;;;10.95;7.03;;;;;;;;;;4966354;28;20479;-63
2022/03/13 13:36:00;;;;;;;9.38;6.05;;;;;;;;;;4963608;28;20664;-65
2022/03/13 13:38:26;;;;;;;10.45;6.90;;;;;;;;;;4966093;28;20030;-66
2022/03/13 13:40:51;;;;;;;12.65;6.90;;;;;;;;;;4964634;28;20118;-64
2022/03/13 13:43:29;;;;;;;8.90;5.95;;;;;;;;;;4974536;28;20091;-64
2022/03/13 13:46:04;;;;;;;9.80;6.25;;;;;;;;;;4962145;28;20057;-62
2022/03/13 13:48:49;;;;;;;8.77;6.40;;;;;;;;;;4977390;28;20038;-65
2022/03/13 13:51:21;;;;;;;18.75;7.43;;;;;;;;;;4978949;28;20176;-62
2022/03/13 13:54:06;;;;;;;10.00;6.18;;;;;;;;;;4974649;28;20045;-62
2022/03/13 13:56:36;;;;;;;8.38;5.80;;;;;;;;;;4964954;28;20751;-63
2022/03/13 13:59:14;;;;;;;10.68;6.13;;;;;;;;;;4963943;28;20249;-65
2022/03/13 14:01:41;;;;;;;16.45;6.85;;;;;;;;;;4964285;28;20049;-62
2022/03/13 14:04:07;;;;;;;9.60;6.20;;;;;;;;;;4963756;28;20035;-62
2022/03/13 14:06:35;;;;;;;9.90;6.60;;;;;;;;;;4975770;28;20031;-63
2022/03/13 14:09:02;;;;;;;13.73;6.95;;;;;;;;;;4965153;28;20699;-61
2022/03/13 14:11:28;;;;;;;10.10;6.65;;;;;;;;;;4962057;28;20692;-63
2022/03/13 14:13:56;;;;;;;9.90;6.22;;;;;;;;;;4943679;28;20125;-62
2022/03/13 14:16:24;;;;;;;9.98;6.03;;;;;;;;;;4957665;28;20045;-63
2022/03/13 14:18:50;;;;;;;16.02;7.07;;;;;;;;;;4975175;28;20030;-62
2022/03/13 14:21:17;;;;;;;15.25;6.57;;;;;;;;;;4962780;28;20196;-64
2022/03/13 14:23:43;;;;;;;10.63;6.25;;;;;;;;;;4963854;28;20839;-63
2022/03/13 14:26:09;;;;;;;11.70;6.75;;;;;;;;;;4975025;28;20098;-64
2022/03/13 14:28:35;;;;;;;18.55;7.25;;;;;;;;;;4975031;28;20820;-65
2022/03/13 14:31:01;;;;;;;14.55;6.95;;;;;;;;;;4974953;28;20026;-63
2022/03/13 14:33:27;;;;;;;10.50;6.90;;;;;;;;;;4963313;28;20055;-62
2022/03/13 14:35:54;;;;;;;11.20;6.47;;;;;;;;;;4963305;28;20096;-63
2022/03/13 14:38:20;;;;;;;11.38;6.28;;;;;;;;;;4964760;28;20031;-64
2022/03/13 14:40:46;;;;;;;10.07;6.68;;;;;;;;;;4965104;28;20069;-64
2022/03/13 14:43:12;;;;;;;11.00;6.43;;;;;;;;;;4964724;28;20069;-62
2022/03/13 14:45:40;;;;;;;12.50;6.55;;;;;;;;;;4960646;28;20035;-62
2022/03/13 14:48:11;;;;;;;8.48;6.22;;;;;;;;;;4957528;28;20073;-62